createdAt,value
2023-03-15T00:01:24.103Z,3.25
2023-03-15T00:03:50.881Z,3.63
2023-03-15T00:06:17.575Z,3.38
2023-03-15T00:08:47.460Z,3.80
2023-03-15T00:11:18.751Z,3.78
2023-03-15T00:13:46.348Z,2.70
2023-03-15T00:16:17.430Z,4.32
2023-03-15T00:18:47.704Z,2.92
2023-03-15T00:21:14.512Z,3.83
2023-03-15T00:23:41.250Z,3.30
2023-03-15T00:26:07.937Z,2.67
2023-03-15T00:28:34.629Z,2.67
2023-03-15T00:31:05.479Z,4.22
2023-03-15T00:33:35.093Z,3.63
2023-03-15T00:38:33.906Z,3.08
2023-03-15T00:41:05.964Z,2.58
2023-03-15T00:43:32.570Z,3.42
2023-03-15T00:45:59.489Z,2.70
2023-03-15T00:48:26.171Z,3.38
2023-03-15T00:51:11.847Z,2.53
2023-03-15T00:53:41.254Z,3.35
2023-03-15T00:56:17.264Z,2.22
2023-03-15T00:58:44.604Z,2.67
2023-03-15T01:01:17.357Z,2.80
2023-03-15T01:03:45.321Z,3.42
2023-03-15T01:06:17.867Z,3.92
2023-03-15T01:08:45.148Z,2.72
2023-03-15T01:11:18.232Z,3.40
2023-03-15T01:13:44.973Z,3.85
2023-03-15T01:16:14.324Z,3.38
2023-03-15T01:18:41.325Z,3.83
2023-03-15T01:21:09.813Z,3.40
2023-03-15T01:23:36.648Z,2.83
2023-03-15T01:26:05.972Z,3.75
2023-03-15T01:28:32.686Z,3.20
2023-03-15T01:31:00.106Z,3.00
2023-03-15T01:33:27.302Z,3.22
2023-03-15T01:36:06.187Z,3.28
2023-03-15T01:38:33.559Z,2.78
2023-03-15T01:41:01.007Z,3.15
2023-03-15T01:43:31.799Z,3.05
2023-03-15T01:46:23.530Z,2.92
2023-03-15T01:48:57.196Z,4.10
2023-03-15T01:51:46.795Z,3.28
2023-03-15T01:56:55.226Z,2.72
2023-03-15T01:59:27.168Z,3.22
2023-03-15T02:01:55.015Z,2.90
2023-03-15T02:04:57.008Z,4.80
2023-03-15T02:07:26.506Z,4.50
2023-03-15T02:10:03.416Z,3.38
2023-03-15T02:12:33.715Z,3.45
2023-03-15T02:15:02.804Z,4.20
2023-03-15T02:17:38.470Z,3.38
2023-03-15T02:20:38.140Z,3.13
2023-03-15T02:25:59.289Z,2.80
2023-03-15T02:28:26.930Z,3.17
2023-03-15T02:30:53.558Z,2.83
2023-03-15T02:33:30.491Z,3.10
2023-03-15T02:36:09.964Z,3.35
2023-03-15T02:38:36.785Z,3.33
2023-03-15T02:41:04.504Z,3.55
2023-03-15T02:43:32.857Z,3.90
2023-03-15T02:46:00.848Z,3.08
2023-03-15T02:48:28.634Z,3.13
2023-03-15T02:50:55.283Z,3.05
2023-03-15T02:53:21.918Z,4.22
2023-03-15T02:55:48.586Z,3.63
2023-03-15T02:58:15.248Z,4.55
2023-03-15T03:00:41.855Z,3.65
2023-03-15T03:03:09.018Z,3.47
2023-03-15T03:05:35.631Z,3.78
2023-03-15T03:08:02.771Z,2.63
2023-03-15T03:10:29.685Z,2.97
2023-03-15T03:12:56.366Z,3.90
2023-03-15T03:15:23.094Z,3.10
2023-03-15T03:17:49.755Z,3.83
2023-03-15T03:20:16.462Z,3.13
2023-03-15T03:22:44.930Z,2.88
2023-03-15T03:25:12.737Z,4.05
2023-03-15T03:27:40.707Z,3.40
2023-03-15T03:30:11.424Z,2.67
2023-03-15T03:32:39.418Z,3.00
2023-03-15T03:35:06.709Z,3.58
2023-03-15T03:37:35.889Z,3.22
2023-03-15T03:40:07.704Z,3.38
2023-03-15T03:42:37.697Z,3.00
2023-03-15T03:45:04.817Z,3.35
2023-03-15T03:47:31.436Z,3.22
2023-03-15T03:49:58.049Z,3.33
2023-03-15T03:52:24.678Z,3.75
2023-03-15T03:54:51.319Z,3.30
2023-03-15T03:57:17.902Z,3.88
2023-03-15T03:59:44.599Z,3.40
2023-03-15T04:02:11.319Z,3.25
2023-03-15T04:04:41.217Z,3.83
2023-03-15T04:07:08.400Z,3.78
2023-03-15T04:09:37.400Z,2.97
2023-03-15T04:12:05.520Z,3.90
2023-03-15T04:14:32.211Z,4.32
2023-03-15T04:16:58.915Z,3.63
2023-03-15T04:19:25.687Z,3.60
2023-03-15T04:21:52.467Z,3.15
2023-03-15T04:24:19.162Z,3.55
2023-03-15T04:26:45.710Z,3.42
2023-03-15T04:29:12.574Z,3.28
2023-03-15T04:31:39.309Z,3.55
2023-03-15T04:34:06.243Z,3.75
2023-03-15T04:36:32.892Z,4.13
2023-03-15T04:39:05.937Z,3.72
2023-03-15T04:41:36.729Z,3.78
2023-03-15T04:44:04.190Z,4.32
2023-03-15T04:46:34.082Z,4.70
2023-03-15T04:49:01.683Z,4.55
2023-03-15T04:51:28.375Z,4.13
2023-03-15T04:53:54.948Z,4.30
2023-03-15T04:56:21.661Z,3.97
2023-03-15T04:58:48.229Z,4.57
2023-03-15T05:01:14.950Z,5.32
2023-03-15T05:03:41.681Z,4.55
2023-03-15T05:06:08.409Z,4.38
2023-03-15T05:08:36.606Z,5.57
2023-03-15T05:11:04.543Z,5.57
2023-03-15T05:13:31.413Z,4.95
2023-03-15T05:15:58.273Z,5.90
2023-03-15T05:18:24.926Z,5.93
2023-03-15T05:20:51.640Z,5.93
2023-03-15T05:23:18.361Z,4.72
2023-03-15T05:25:54.036Z,5.65
2023-03-15T05:28:22.182Z,4.78
2023-03-15T05:30:49.233Z,5.50
2023-03-15T05:33:16.339Z,5.32
2023-03-15T05:35:44.693Z,5.13
2023-03-15T05:38:14.941Z,5.85
2023-03-15T05:40:45.352Z,5.57
2023-03-15T05:43:12.525Z,6.50
2023-03-15T05:45:39.691Z,6.70
2023-03-15T05:48:06.596Z,6.78
2023-03-15T05:50:33.598Z,7.28
2023-03-15T05:53:00.225Z,7.07
2023-03-15T05:55:26.924Z,6.38
2023-03-15T05:57:53.642Z,7.93
2023-03-15T06:00:20.775Z,7.45
2023-03-15T06:02:47.625Z,8.52
2023-03-15T06:05:14.385Z,8.63
2023-03-15T06:07:41.240Z,7.75
2023-03-15T06:10:08.472Z,8.88
2023-03-15T06:12:35.109Z,7.03
2023-03-15T06:17:52.922Z,7.45
2023-03-15T06:20:19.645Z,6.93
2023-03-15T06:22:46.272Z,7.10
2023-03-15T06:25:12.848Z,7.28
2023-03-15T06:27:39.601Z,8.05
2023-03-15T06:30:07.180Z,10.68
2023-03-15T06:32:34.086Z,13.88
2023-03-15T06:35:00.843Z,14.45
2023-03-15T06:37:35.070Z,13.00
2023-03-15T06:40:09.807Z,12.00
2023-03-15T06:42:37.355Z,11.52
2023-03-15T06:45:05.321Z,9.10
2023-03-15T06:47:32.269Z,9.05
2023-03-15T06:49:58.904Z,9.30
2023-03-15T06:52:25.797Z,9.20
2023-03-15T06:54:52.392Z,8.30
2023-03-15T06:57:19.155Z,7.28
2023-03-15T06:59:45.895Z,6.63
2023-03-15T07:02:18.169Z,6.63
2023-03-15T07:04:45.228Z,7.05
2023-03-15T07:07:12.876Z,7.50
2023-03-15T07:09:39.808Z,6.43
2023-03-15T07:12:07.402Z,5.80
2023-03-15T07:14:34.870Z,4.80
2023-03-15T07:17:01.453Z,5.07
2023-03-15T07:19:28.196Z,5.05
2023-03-15T07:21:54.759Z,4.80
2023-03-15T07:24:21.577Z,4.70
2023-03-15T07:26:48.199Z,4.82
2023-03-15T07:29:14.821Z,5.05
2023-03-15T07:31:41.490Z,5.28
2023-03-15T07:34:08.063Z,5.47
2023-03-15T07:36:34.621Z,5.20
2023-03-15T07:39:01.831Z,6.10
2023-03-15T07:41:28.400Z,5.72
2023-03-15T07:43:56.445Z,5.40
2023-03-15T07:46:24.127Z,5.78
2023-03-15T07:48:50.934Z,5.80
2023-03-15T07:51:17.573Z,6.22
2023-03-15T07:53:44.194Z,5.10
2023-03-15T07:56:10.821Z,6.15
2023-03-15T07:58:37.443Z,5.97
2023-03-15T08:01:04.152Z,6.70
2023-03-15T08:03:31.560Z,6.40
2023-03-15T08:05:58.265Z,6.00
2023-03-15T08:08:25.052Z,6.20
2023-03-15T08:10:51.702Z,6.65
2023-03-15T08:13:18.328Z,6.30
2023-03-15T08:15:48.083Z,6.53
2023-03-15T08:20:41.640Z,6.53
2023-03-15T08:23:09.176Z,8.38
2023-03-15T08:25:40.590Z,8.20
2023-03-15T08:28:07.288Z,7.72
2023-03-15T08:30:34.163Z,8.23
2023-03-15T08:33:00.888Z,8.18
2023-03-15T08:35:27.806Z,8.75
2023-03-15T08:37:54.418Z,7.95
2023-03-15T08:40:24.740Z,7.80
2023-03-15T08:42:55.168Z,8.27
2023-03-15T08:45:26.624Z,8.60
2023-03-15T08:47:57.899Z,10.05
2023-03-15T08:50:25.738Z,7.40
2023-03-15T08:52:52.721Z,6.80
2023-03-15T08:55:20.014Z,5.25
2023-03-15T08:57:47.031Z,5.35
2023-03-15T09:00:22.553Z,4.45
2023-03-15T09:02:50.224Z,4.60
2023-03-15T09:05:17.736Z,4.40
2023-03-15T09:07:45.593Z,4.60
2023-03-15T09:10:15.004Z,3.45
2023-03-15T09:12:43.311Z,4.03
2023-03-15T09:15:11.796Z,3.90
2023-03-15T09:17:39.649Z,3.38
2023-03-15T09:20:12.289Z,3.10
2023-03-15T09:22:39.846Z,3.55
2023-03-15T09:25:08.310Z,3.05
2023-03-15T09:27:35.351Z,2.58
2023-03-15T09:30:02.288Z,2.70
2023-03-15T09:32:28.978Z,2.63
2023-03-15T09:34:55.632Z,3.50
2023-03-15T09:37:22.255Z,3.00
2023-03-15T09:39:49.070Z,2.70
2023-03-15T09:42:54.200Z,2.50
2023-03-15T09:46:04.352Z,2.40
2023-03-15T09:48:37.897Z,3.15
2023-03-15T09:51:17.296Z,3.83
2023-03-15T09:53:50.704Z,3.00
2023-03-15T09:56:27.698Z,3.50
2023-03-15T09:58:58.393Z,3.40
2023-03-15T10:01:39.966Z,3.40
2023-03-15T10:04:25.260Z,3.58
2023-03-15T10:06:57.948Z,3.58
2023-03-15T10:09:27.962Z,3.35
2023-03-15T10:12:15.189Z,3.83
2023-03-15T10:15:01.995Z,3.00
2023-03-15T10:17:50.512Z,2.78
2023-03-15T10:20:27.531Z,2.13
2023-03-15T10:23:06.924Z,2.38
2023-03-15T10:25:35.463Z,1.90
2023-03-15T10:28:04.611Z,2.30
2023-03-15T10:30:37.858Z,1.65
2023-03-15T10:33:23.829Z,1.95
2023-03-15T10:35:52.463Z,1.73
2023-03-15T10:38:24.556Z,1.75
2023-03-15T10:40:56.215Z,1.80
2023-03-15T10:43:23.902Z,1.80
2023-03-15T10:46:11.500Z,1.65
2023-03-15T10:48:53.419Z,1.77
2023-03-15T10:51:29.274Z,1.73
2023-03-15T10:54:12.148Z,1.20
2023-03-15T10:56:49.606Z,1.27
2023-03-15T10:59:24.159Z,1.60
2023-03-15T11:02:08.023Z,1.92
2023-03-15T11:04:34.703Z,2.00
2023-03-15T11:07:03.825Z,2.03
2023-03-15T11:09:55.083Z,1.73
2023-03-15T11:15:25.781Z,2.35
2023-03-15T11:17:52.705Z,1.98
2023-03-15T11:20:30.672Z,1.80
2023-03-15T11:23:00.033Z,2.42
2023-03-15T11:25:33.894Z,2.63
2023-03-15T11:28:01.389Z,2.08
2023-03-15T11:30:31.268Z,2.75
2023-03-15T11:33:06.885Z,2.40
2023-03-15T11:35:38.680Z,2.95
2023-03-15T11:38:18.450Z,2.47
2023-03-15T11:40:50.924Z,2.40
2023-03-15T11:43:34.414Z,1.65
2023-03-15T11:46:05.940Z,2.10
2023-03-15T11:48:42.696Z,2.15
2023-03-15T11:51:12.709Z,1.80
2023-03-15T11:53:47.329Z,2.08
2023-03-15T11:56:26.458Z,2.10
2023-03-15T11:59:04.985Z,2.38
2023-03-15T12:01:33.668Z,2.80
2023-03-15T12:04:25.226Z,1.87
2023-03-15T12:06:54.200Z,2.33
2023-03-15T12:09:32.848Z,2.60
2023-03-15T12:12:04.677Z,2.63
2023-03-15T12:14:33.909Z,2.85
2023-03-15T12:17:29.569Z,3.63
2023-03-15T12:20:14.394Z,1.92
2023-03-15T12:22:53.805Z,2.30
2023-03-15T12:25:48.908Z,2.30
2023-03-15T12:28:41.751Z,2.17
2023-03-15T12:31:13.413Z,1.98
2023-03-15T12:33:57.746Z,2.40
2023-03-15T12:36:38.007Z,2.22
2023-03-15T12:39:16.527Z,1.95
2023-03-15T12:41:46.537Z,1.60
2023-03-15T12:44:24.217Z,1.90
2023-03-15T12:46:50.768Z,2.08
2023-03-15T12:49:23.115Z,2.08
2023-03-15T12:52:06.771Z,2.05
2023-03-15T12:55:11.909Z,2.15
2023-03-15T12:57:54.113Z,2.10
2023-03-15T13:00:23.401Z,2.75
2023-03-15T13:02:54.729Z,2.33
2023-03-15T13:06:03.254Z,2.90
2023-03-15T13:08:50.505Z,2.50
2023-03-15T13:11:23.675Z,2.65
2023-03-15T13:14:21.076Z,2.42
2023-03-15T13:16:57.574Z,2.65
2023-03-15T13:19:28.436Z,2.95
2023-03-15T13:22:06.856Z,2.67
2023-03-15T13:24:50.610Z,2.13
2023-03-15T13:27:34.504Z,2.28
2023-03-15T13:30:26.311Z,2.50
2023-03-15T13:33:08.894Z,2.20
2023-03-15T13:35:53.913Z,2.40
2023-03-15T13:38:33.833Z,2.42
2023-03-15T13:41:03.621Z,2.20
2023-03-15T13:43:36.636Z,2.40
2023-03-15T13:46:04.194Z,2.22
2023-03-15T13:48:33.359Z,2.10
2023-03-15T13:51:23.081Z,3.17
2023-03-15T13:53:52.970Z,3.67
2023-03-15T13:56:28.311Z,3.70
2023-03-15T13:58:57.022Z,4.70
2023-03-15T14:01:25.746Z,4.30
2023-03-15T14:03:59.326Z,3.57
2023-03-15T14:06:27.577Z,2.97
2023-03-15T14:09:20.050Z,3.30
2023-03-15T14:12:04.565Z,3.10
2023-03-15T14:14:32.589Z,3.55
2023-03-15T14:17:05.750Z,2.22
2023-03-15T14:19:34.882Z,2.33
2023-03-15T14:22:15.784Z,2.20
2023-03-15T14:24:44.258Z,2.38
2023-03-15T14:27:15.996Z,2.03
2023-03-15T14:29:58.253Z,2.10
2023-03-15T14:32:29.776Z,1.90
2023-03-15T14:35:05.711Z,1.63
2023-03-15T14:37:37.364Z,1.65
2023-03-15T14:40:28.540Z,2.05
2023-03-15T14:42:55.271Z,1.80
2023-03-15T14:45:22.315Z,1.80
2023-03-15T14:47:58.817Z,2.15
2023-03-15T14:50:29.218Z,3.40
2023-03-15T14:52:57.767Z,2.08
2023-03-15T14:55:29.774Z,2.00
2023-03-15T14:57:56.507Z,2.28
2023-03-15T15:00:24.780Z,1.30
2023-03-15T15:02:55.061Z,1.35
2023-03-15T15:05:34.764Z,1.70
2023-03-15T15:10:28.017Z,1.90
2023-03-15T15:13:05.503Z,1.67
2023-03-15T15:15:47.429Z,1.92
2023-03-15T15:18:20.931Z,1.88
2023-03-15T15:20:47.870Z,1.92
2023-03-15T15:23:23.251Z,2.00
2023-03-15T15:25:51.553Z,1.63
2023-03-15T15:28:33.133Z,1.38
2023-03-15T15:31:00.722Z,1.20
2023-03-15T15:33:27.389Z,1.10
2023-03-15T15:35:56.390Z,1.20
2023-03-15T15:38:33.074Z,1.70
2023-03-15T15:41:00.072Z,1.88
2023-03-15T15:43:26.724Z,1.80
2023-03-15T15:45:53.425Z,2.28
2023-03-15T15:48:20.202Z,1.77
2023-03-15T15:50:46.782Z,1.73
2023-03-15T15:53:17.175Z,2.63
2023-03-15T15:55:44.249Z,1.80
2023-03-15T15:58:12.484Z,1.60
2023-03-15T16:00:39.326Z,2.08
2023-03-15T16:03:17.377Z,2.17
2023-03-15T16:05:44.314Z,2.00
2023-03-15T16:08:24.698Z,1.80
2023-03-15T16:10:51.515Z,1.55
2023-03-15T16:13:18.235Z,1.90
2023-03-15T16:15:45.150Z,1.98
2023-03-15T16:18:12.524Z,2.05
2023-03-15T16:20:41.180Z,1.60
2023-03-15T16:23:18.960Z,1.95
2023-03-15T16:25:51.291Z,1.55
2023-03-15T16:28:18.278Z,1.50
2023-03-15T16:30:47.043Z,2.10
2023-03-15T16:33:16.760Z,1.80
2023-03-15T16:35:44.245Z,1.90
2023-03-15T16:38:16.932Z,1.50
2023-03-15T16:40:45.443Z,2.08
2023-03-15T16:43:13.742Z,2.10
2023-03-15T16:45:40.869Z,2.47
2023-03-15T16:48:07.614Z,2.65
2023-03-15T16:50:34.842Z,2.30
2023-03-15T16:53:04.908Z,2.88
2023-03-15T16:55:35.162Z,2.40
2023-03-15T16:58:04.372Z,2.33
2023-03-15T17:00:31.612Z,2.20
2023-03-15T17:03:01.635Z,2.55
2023-03-15T17:05:28.496Z,2.28
2023-03-15T17:07:55.564Z,2.63
2023-03-15T17:10:25.993Z,2.90
2023-03-15T17:12:54.212Z,2.65
2023-03-15T17:15:24.373Z,2.22
2023-03-15T17:17:52.376Z,1.83
2023-03-15T17:20:22.658Z,2.20
2023-03-15T17:22:51.302Z,1.88
2023-03-15T17:25:19.017Z,3.38
2023-03-15T17:27:47.545Z,2.95
2023-03-15T17:30:30.067Z,2.20
2023-03-15T17:32:56.957Z,2.58
2023-03-15T17:35:36.545Z,2.20
2023-03-15T17:38:05.816Z,2.50
2023-03-15T17:40:34.947Z,3.03
2023-03-15T17:43:03.512Z,3.88
2023-03-15T17:45:34.493Z,2.83
2023-03-15T17:48:02.319Z,3.05
2023-03-15T17:50:31.696Z,3.13
2023-03-15T17:53:04.308Z,3.30
2023-03-15T17:55:34.875Z,3.05
2023-03-15T17:58:11.772Z,3.72
2023-03-15T18:00:38.646Z,4.30
2023-03-15T18:03:05.296Z,3.92
2023-03-15T18:05:31.922Z,4.55
2023-03-15T18:07:59.934Z,3.30
2023-03-15T18:10:35.329Z,3.47
2023-03-15T18:13:02.499Z,4.57
2023-03-15T18:15:29.236Z,5.15
2023-03-15T18:17:55.926Z,4.90
2023-03-15T18:20:23.918Z,5.45
2023-03-15T18:22:51.408Z,6.30
2023-03-15T18:25:25.371Z,6.75
2023-03-15T18:27:52.465Z,6.88
2023-03-15T18:30:21.537Z,6.15
2023-03-15T18:32:49.043Z,5.13
2023-03-15T18:35:25.031Z,6.28
2023-03-15T18:37:54.056Z,6.03
2023-03-15T18:40:21.165Z,6.65
2023-03-15T18:42:48.196Z,5.78
2023-03-15T18:45:23.906Z,5.82
2023-03-15T18:47:51.045Z,10.02
2023-03-15T18:50:18.816Z,9.27
2023-03-15T18:52:46.061Z,7.82
2023-03-15T18:55:14.964Z,9.55
2023-03-15T18:57:42.973Z,10.07
2023-03-15T19:00:12.964Z,9.88
2023-03-15T19:02:44.930Z,12.15
2023-03-15T19:05:13.276Z,7.93
2023-03-15T19:07:40.943Z,7.60
2023-03-15T19:10:13.275Z,7.55
2023-03-15T19:12:44.783Z,8.10
2023-03-15T19:15:15.059Z,7.75
2023-03-15T19:17:42.162Z,6.18
2023-03-15T19:20:11.902Z,5.97
2023-03-15T19:22:39.730Z,7.22
2023-03-15T19:25:07.190Z,5.07
2023-03-15T19:27:35.484Z,5.55
2023-03-15T19:30:02.303Z,5.50
2023-03-15T19:32:29.944Z,4.95
2023-03-15T19:34:57.196Z,6.05
2023-03-15T19:37:24.168Z,5.45
2023-03-15T19:39:50.990Z,5.25
2023-03-15T19:42:17.713Z,5.60
2023-03-15T19:44:44.480Z,5.10
2023-03-15T19:47:11.206Z,5.32
2023-03-15T19:49:37.861Z,5.25
2023-03-15T19:52:04.491Z,4.70
2023-03-15T19:54:33.945Z,5.68
2023-03-15T19:57:00.897Z,3.92
2023-03-15T19:59:27.818Z,3.75
2023-03-15T20:01:54.502Z,4.38
2023-03-15T20:04:21.438Z,3.97
2023-03-15T20:06:48.060Z,4.10
2023-03-15T20:09:15.686Z,4.68
2023-03-15T20:11:42.397Z,5.20
2023-03-15T20:14:08.999Z,5.88
2023-03-15T20:16:35.562Z,6.70
2023-03-15T20:19:02.216Z,6.90
2023-03-15T20:21:29.614Z,7.63
2023-03-15T20:23:56.287Z,7.65
2023-03-15T20:26:25.063Z,7.15
2023-03-15T20:28:52.809Z,7.23
2023-03-15T20:31:19.538Z,8.13
2023-03-15T20:33:49.456Z,6.50
2023-03-15T20:36:17.225Z,4.90
2023-03-15T20:38:45.350Z,4.22
2023-03-15T20:41:14.994Z,3.60
2023-03-15T20:46:09.860Z,3.10
2023-03-15T20:48:37.114Z,2.67
2023-03-15T20:51:04.879Z,3.17
2023-03-15T20:53:34.083Z,3.88
2023-03-15T20:56:01.173Z,3.28
2023-03-15T20:58:28.012Z,3.47
2023-03-15T21:01:06.820Z,3.72
2023-03-15T21:03:34.474Z,3.90
2023-03-15T21:06:02.926Z,3.25
2023-03-15T21:08:29.589Z,3.45
2023-03-15T21:10:56.621Z,3.25
2023-03-15T21:13:23.823Z,3.72
2023-03-15T21:15:53.159Z,4.30
2023-03-15T21:18:21.897Z,4.68
2023-03-15T21:20:57.185Z,3.72
2023-03-15T21:23:24.928Z,3.88
2023-03-15T21:25:55.608Z,3.95
2023-03-15T21:28:22.749Z,4.35
2023-03-15T21:30:54.086Z,4.40
2023-03-15T21:33:22.515Z,5.10
2023-03-15T21:35:49.990Z,4.80
2023-03-15T21:38:16.653Z,3.85
2023-03-15T21:40:44.825Z,3.78
2023-03-15T21:43:11.872Z,3.38
2023-03-15T21:45:38.615Z,3.90
2023-03-15T21:48:05.551Z,4.97
2023-03-15T21:50:32.215Z,3.60
2023-03-15T21:52:59.026Z,3.33
2023-03-15T21:55:25.764Z,3.53
2023-03-15T21:57:52.364Z,3.80
2023-03-15T22:00:20.380Z,3.45
2023-03-15T22:02:47.116Z,4.10
2023-03-15T22:05:14.396Z,4.32
2023-03-15T22:07:41.987Z,3.78
2023-03-15T22:10:10.034Z,4.30
2023-03-15T22:12:37.964Z,3.95
2023-03-15T22:15:06.500Z,4.50
2023-03-15T22:17:33.918Z,4.18
2023-03-15T22:20:00.860Z,4.13
2023-03-15T22:22:27.893Z,4.03
2023-03-15T22:24:54.643Z,3.42
2023-03-15T22:27:21.405Z,3.72
2023-03-15T22:29:48.010Z,4.13
2023-03-15T22:32:14.606Z,3.70
2023-03-15T22:34:41.382Z,3.35
2023-03-15T22:37:08.050Z,3.13
2023-03-15T22:39:35.311Z,4.03
2023-03-15T22:42:01.883Z,4.15
2023-03-15T22:44:30.410Z,3.85
2023-03-15T22:46:57.268Z,3.58
2023-03-15T22:49:24.000Z,3.75
2023-03-15T22:51:50.592Z,4.07
2023-03-15T22:54:17.286Z,4.15
2023-03-15T22:56:44.029Z,4.18
2023-03-15T22:59:10.720Z,3.75
2023-03-15T23:01:37.426Z,4.72
2023-03-15T23:04:04.202Z,4.90
2023-03-15T23:06:30.897Z,3.83
2023-03-15T23:08:57.540Z,3.80
2023-03-15T23:11:24.133Z,3.38
2023-03-15T23:13:50.831Z,4.50
2023-03-15T23:16:17.707Z,3.10
2023-03-15T23:18:44.392Z,3.70
2023-03-15T23:21:13.982Z,3.50
2023-03-15T23:23:42.622Z,3.45
2023-03-15T23:26:10.222Z,4.23
2023-03-15T23:28:36.854Z,3.67
2023-03-15T23:31:05.678Z,3.53
2023-03-15T23:33:35.982Z,4.05
2023-03-15T23:36:05.653Z,3.38
2023-03-15T23:38:34.512Z,3.00
2023-03-15T23:41:01.938Z,3.95
2023-03-15T23:43:28.651Z,3.85
2023-03-15T23:46:00.338Z,2.67
2023-03-15T23:48:27.504Z,3.28
2023-03-15T23:50:55.905Z,3.80
2023-03-15T23:53:25.270Z,3.80
2023-03-15T23:55:52.991Z,3.83
2023-03-15T23:58:19.956Z,3.60
